Time;durP1;ratioP1;P1;durP2;ratioP2;P2;SDS_P1;SDS_P2;PMS_P1;PMS_P2;Temp;Humidity;BMP_temperature;BMP_pressure;BME280_temperature;BME280_humidity;BME280_pressure;Samples;Min_cycle;Max_cycle;Signal;HPM_P1;HPM_P2
2021/07/14 00:00:40;;;;;;;13.70;9.95;;;;;;;21.95;71.65;100533.88;4993066;28;20022;-76
2021/07/14 00:03:06;;;;;;;16.60;9.82;;;;;;;21.93;71.62;100533.00;5007932;28;20029;-76
2021/07/14 00:05:32;;;;;;;19.17;9.82;;;;;;;21.92;71.71;100528.63;4992887;28;20034;-76
2021/07/14 00:07:58;;;;;;;11.55;9.80;;;;;;;21.94;71.41;100532.13;4991609;28;20542;-76
2021/07/14 00:10:29;;;;;;;14.68;9.65;;;;;;;21.94;71.60;100537.34;4992868;28;20038;-75
2021/07/14 00:13:11;;;;;;;12.82;10.02;;;;;;;21.93;71.71;100535.59;4992728;28;20098;-76
2021/07/14 00:23:32;;;;;;;14.95;9.93;;;;;;;21.92;71.42;100533.84;5000463;28;20061;-76
2021/07/14 00:25:58;;;;;;;13.45;9.43;;;;;;;21.91;71.26;100542.59;5014923;28;20098;-76
2021/07/14 00:28:24;;;;;;;11.98;10.00;;;;;;;21.89;71.19;100543.47;5014763;28;20049;-76
2021/07/14 00:30:54;;;;;;;12.77;10.00;;;;;;;21.87;71.56;100539.97;5014434;28;20026;-76
2021/07/14 00:33:21;;;;;;;11.23;10.00;;;;;;;21.86;71.35;100540.84;4998314;28;20109;-76
2021/07/14 00:35:47;;;;;;;16.80;11.02;;;;;;;21.83;71.36;100530.34;5014658;28;20533;-75
2021/07/14 00:38:13;;;;;;;14.68;9.50;;;;;;;21.81;71.70;100524.25;5015882;28;20108;-76
2021/07/14 00:40:38;;;;;;;12.35;10.00;;;;;;;21.80;71.85;100514.63;5015873;28;20025;-76
2021/07/14 00:43:05;;;;;;;16.27;10.50;;;;;;;21.78;71.56;100516.38;5015635;28;20104;-76
2021/07/14 00:45:30;;;;;;;15.02;10.10;;;;;;;21.78;71.26;100510.25;5014285;28;20026;-76
2021/07/14 00:47:58;;;;;;;13.57;10.77;;;;;;;21.77;71.45;100509.38;5014443;28;20049;-76
2021/07/14 00:50:24;;;;;;;12.65;10.30;;;;;;;21.76;71.30;100507.63;4997833;28;20545;-76
2021/07/14 00:52:49;;;;;;;14.73;9.45;;;;;;;21.73;71.12;100500.63;5015488;28;20033;-75
2021/07/14 00:55:15;;;;;;;12.93;9.50;;;;;;;21.72;71.72;100498.00;5014364;28;20364;-75
2021/07/14 00:57:41;;;;;;;17.98;10.40;;;;;;;21.70;71.19;100497.13;5030606;28;20129;-75
2021/07/14 01:00:09;;;;;;;12.93;9.98;;;;;;;21.69;71.36;100495.38;5015457;28;20093;-76
2021/07/14 01:02:34;;;;;;;13.50;10.40;;;;;;;21.66;71.23;100490.13;5014084;28;20025;-75
2021/07/14 01:05:11;;;;;;;11.90;10.07;;;;;;;21.66;71.17;100492.75;4997406;28;20030;-75
2021/07/14 01:07:45;;;;;;;12.10;10.00;;;;;;;21.63;71.43;100492.72;5014113;28;20025;-76
2021/07/14 01:10:21;;;;;;;12.52;9.93;;;;;;;21.62;71.13;100489.22;4997437;28;20034;-75
2021/07/14 01:13:07;;;;;;;14.68;10.52;;;;;;;21.64;71.24;100481.38;5013822;28;20558;-75
2021/07/14 01:15:44;;;;;;;13.63;10.43;;;;;;;21.62;71.23;100483.09;5013652;28;20038;-75
2021/07/14 01:18:43;;;;;;;12.90;9.95;;;;;;;21.60;71.28;100476.13;5014087;28;20026;-76
2021/07/14 01:21:18;;;;;;;14.85;11.10;;;;;;;21.60;71.06;100470.88;4997373;28;20472;-76
2021/07/14 01:24:00;;;;;;;16.30;10.57;;;;;;;21.57;71.43;100481.34;4993949;28;20053;-76
2021/07/14 01:26:37;;;;;;;16.33;10.82;;;;;;;21.57;71.52;100470.88;4994596;28;20026;-76
2021/07/14 01:29:06;;;;;;;15.18;11.73;;;;;;;21.56;71.48;100469.13;4995220;28;20030;-75
2021/07/14 01:31:34;;;;;;;15.38;11.73;;;;;;;21.53;71.50;100474.34;5010020;28;20026;-76
2021/07/14 01:34:02;;;;;;;16.42;11.38;;;;;;;21.53;71.25;100476.13;5010517;28;20033;-75
2021/07/14 01:36:30;;;;;;;16.17;12.15;;;;;;;21.53;71.36;100474.34;5026667;28;20030;-75
2021/07/14 01:38:56;;;;;;;17.50;11.32;;;;;;;21.52;71.60;100472.63;5010164;28;20049;-75
2021/07/14 01:41:24;;;;;;;17.85;11.93;;;;;;;21.52;71.70;100467.38;4993810;28;20029;-75
2021/07/14 01:44:00;;;;;;;18.92;11.68;;;;;;;21.51;71.29;100465.63;4995036;28;20026;-75
2021/07/14 01:46:29;;;;;;;15.57;11.98;;;;;;;21.51;71.36;100455.16;5010113;28;20448;-75
2021/07/14 01:48:57;;;;;;;16.77;11.85;;;;;;;21.49;71.29;100459.50;5009405;28;20018;-75
2021/07/14 01:51:23;;;;;;;17.08;11.32;;;;;;;21.47;71.39;100457.78;5009959;28;20030;-75
2021/07/14 01:53:49;;;;;;;16.20;10.90;;;;;;;21.43;71.35;100452.53;5009131;28;20026;-76
2021/07/14 01:56:15;;;;;;;14.13;11.52;;;;;;;21.44;71.26;100458.63;5009828;28;20036;-75
2021/07/14 01:58:44;;;;;;;19.05;12.40;;;;;;;21.47;71.16;100448.16;5009764;28;20022;-76
2021/07/14 02:01:12;;;;;;;17.70;11.93;;;;;;;21.46;71.33;100446.41;5009352;28;20057;-75
2021/07/14 02:03:43;;;;;;;15.55;12.18;;;;;;;21.46;71.35;100443.78;5009403;28;20105;-76
2021/07/14 02:06:09;;;;;;;17.67;12.30;;;;;;;21.47;71.26;100448.16;4993131;28;20106;-75
2021/07/14 02:08:37;;;;;;;22.00;12.18;;;;;;;21.44;71.26;100437.66;4992983;28;20023;-76
2021/07/14 02:11:03;;;;;;;17.85;12.57;;;;;;;21.42;71.17;100442.03;4994184;28;20026;-75
2021/07/14 02:13:30;;;;;;;19.73;11.70;;;;;;;21.40;71.49;100436.81;5009552;28;20037;-75
2021/07/14 02:15:59;;;;;;;18.70;13.45;;;;;;;21.39;71.45;100440.31;4994444;28;20026;-75
2021/07/14 02:18:26;;;;;;;18.15;12.18;;;;;;;21.37;71.42;100436.81;5009049;28;20026;-75
2021/07/14 02:20:57;;;;;;;16.63;12.15;;;;;;;21.37;71.52;100435.91;5009296;28;20124;-75
2021/07/14 02:23:23;;;;;;;17.45;12.15;;;;;;;21.35;71.94;100432.41;5012215;28;20042;-75
2021/07/14 02:25:49;;;;;;;18.25;12.15;;;;;;;21.35;71.82;100440.28;5013399;28;20030;-75
2021/07/14 02:28:15;;;;;;;17.40;13.45;;;;;;;21.34;71.79;100438.53;5013537;28;20029;-75
2021/07/14 02:30:40;;;;;;;18.13;12.35;;;;;;;21.34;71.77;100449.91;5012470;28;20029;-74
2021/07/14 02:33:09;;;;;;;18.30;13.23;;;;;;;21.33;71.53;100442.03;5013235;28;20045;-74
2021/07/14 02:35:37;;;;;;;17.30;12.30;;;;;;;21.30;71.84;100438.53;5013148;28;20475;-73
2021/07/14 02:38:10;;;;;;;20.88;13.70;;;;;;;21.30;71.83;100446.38;5010921;28;20121;-75
2021/07/14 02:41:12;;;;;;;17.02;12.90;;;;;;;21.28;71.81;100437.66;4995922;28;20022;-75
2021/07/14 02:43:39;;;;;;;18.77;13.50;;;;;;;21.30;71.68;100441.16;4987836;28;20045;-76
2021/07/14 02:46:11;;;;;;;23.13;14.13;;;;;;;21.29;71.85;100438.53;5011820;28;20096;-77
2021/07/14 02:48:38;;;;;;;18.35;12.75;;;;;;;21.28;71.72;100437.66;4979235;28;20022;-77
2021/07/14 02:51:04;;;;;;;17.90;13.85;;;;;;;21.28;71.91;100421.94;5019784;28;20033;-78
2021/07/14 02:53:33;;;;;;;16.70;13.30;;;;;;;21.26;72.10;100434.16;5011368;28;20057;-78
2021/07/14 02:56:01;;;;;;;17.50;13.05;;;;;;;21.26;72.03;100428.91;5011583;28;20041;-78
2021/07/14 02:58:31;;;;;;;19.23;13.38;;;;;;;21.24;71.85;100425.44;5012042;28;20037;-78
2021/07/14 03:00:59;;;;;;;23.77;14.05;;;;;;;21.24;71.97;100428.03;5013031;28;20072;-77
2021/07/14 03:03:25;;;;;;;17.50;13.13;;;;;;;21.23;72.06;100434.16;5011997;28;20029;-78
2021/07/14 03:05:55;;;;;;;15.85;13.23;;;;;;;21.24;72.15;100428.03;4979459;28;20030;-77
2021/07/14 03:08:26;;;;;;;19.58;14.43;;;;;;;21.26;71.70;100434.16;5011931;28;20475;-77
2021/07/14 03:10:53;;;;;;;19.60;14.00;;;;;;;21.26;72.14;100423.69;5011131;28;20104;-77
2021/07/14 03:13:20;;;;;;;19.15;13.02;;;;;;;21.26;72.24;100418.44;5011304;28;20128;-78
2021/07/14 03:15:47;;;;;;;17.67;12.88;;;;;;;21.25;72.11;100421.94;5011764;28;20034;-77
2021/07/14 03:18:14;;;;;;;20.08;13.27;;;;;;;21.24;72.15;100420.19;4995668;28;20025;-77
2021/07/14 03:20:40;;;;;;;20.58;14.23;;;;;;;21.26;71.96;100428.91;5011786;28;20101;-77
2021/07/14 03:23:06;;;;;;;21.05;13.50;;;;;;;21.23;71.91;100423.69;4995236;28;20030;-77
2021/07/14 03:25:31;;;;;;;18.50;13.80;;;;;;;21.21;72.07;100430.66;4995086;28;20488;-77
2021/07/14 03:27:57;;;;;;;19.17;14.35;;;;;;;21.17;72.47;100429.75;4994994;28;20088;-78
2021/07/14 03:30:23;;;;;;;21.70;13.90;;;;;;;21.20;72.22;100436.75;5013016;28;20042;-79
2021/07/14 03:32:50;;;;;;;20.80;14.70;;;;;;;21.20;72.31;100434.16;5011704;28;20105;-79
2021/07/14 03:35:16;;;;;;;19.30;13.73;;;;;;;21.19;72.19;100432.41;5013260;28;20025;-80
2021/07/14 03:37:48;;;;;;;14.90;13.02;;;;;;;21.19;72.17;100437.63;4995044;28;20543;-79
2021/07/14 03:40:14;;;;;;;20.80;13.98;;;;;;;21.20;72.35;100439.38;5011664;28;20100;-79
2021/07/14 03:42:40;;;;;;;17.33;12.55;;;;;;;21.16;72.03;100435.88;4995171;28;20371;-79
2021/07/14 03:45:06;;;;;;;19.27;13.80;;;;;;;21.18;72.54;100448.97;5012635;28;20141;-79
2021/07/14 03:47:33;;;;;;;22.00;13.07;;;;;;;21.19;72.52;100450.72;5011439;28;20109;-79
2021/07/14 03:49:59;;;;;;;21.90;13.80;;;;;;;21.17;72.55;100449.84;4981715;28;20026;-79
2021/07/14 03:52:25;;;;;;;21.13;14.32;;;;;;;21.13;72.79;100451.56;5015664;28;20022;-79
2021/07/14 03:54:51;;;;;;;18.23;14.02;;;;;;;21.13;72.72;100459.44;5015403;28;20032;-79
2021/07/14 03:57:16;;;;;;;19.40;14.75;;;;;;;21.14;72.72;100465.56;4998695;28;20022;-79
2021/07/14 03:59:42;;;;;;;20.92;14.57;;;;;;;21.11;72.77;100483.88;5015451;28;20160;-79
2021/07/14 04:02:10;;;;;;;21.92;15.25;;;;;;;21.02;73.11;100492.56;4982033;28;20109;-76
2021/07/14 04:04:36;;;;;;;26.83;15.18;;;;;;;20.97;73.19;100489.94;5023169;28;20494;-77
2021/07/14 04:07:07;;;;;;;20.38;14.18;;;;;;;20.92;73.85;100481.19;5015892;28;20589;-77
2021/07/14 04:09:33;;;;;;;20.25;15.43;;;;;;;20.89;73.79;100494.28;5014610;28;20491;-77
2021/07/14 04:12:00;;;;;;;26.25;16.45;;;;;;;20.82;74.35;100495.13;4998242;28;20044;-78
2021/07/14 04:14:27;;;;;;;20.45;14.77;;;;;;;20.83;74.32;100491.63;5014589;28;20395;-78
2021/07/14 04:16:56;;;;;;;22.88;15.35;;;;;;;20.89;74.01;100486.44;5026175;28;20057;-77
2021/07/14 04:19:22;;;;;;;20.90;14.93;;;;;;;20.92;73.96;100485.53;5014342;28;20475;-78
2021/07/14 04:21:48;;;;;;;20.52;15.50;;;;;;;20.94;74.28;100484.69;5014836;28;20072;-76
2021/07/14 04:24:14;;;;;;;20.63;14.68;;;;;;;20.95;74.15;100486.44;4994791;28;20042;-77
2021/07/14 04:26:40;;;;;;;22.80;16.50;;;;;;;20.92;75.01;100498.63;4996001;28;20026;-77
2021/07/14 04:29:05;;;;;;;22.45;16.83;;;;;;;20.92;74.79;100496.91;4994670;28;20105;-77
2021/07/14 04:31:32;;;;;;;26.88;16.50;;;;;;;20.93;74.72;100493.44;5010826;28;20073;-77
2021/07/14 04:33:58;;;;;;;23.65;16.48;;;;;;;20.99;74.63;100482.09;4994183;28;20026;-77
2021/07/14 04:36:23;;;;;;;27.00;17.95;;;;;;;21.02;74.94;100487.31;4994559;28;20025;-77
2021/07/14 04:38:49;;;;;;;24.67;17.00;;;;;;;21.02;74.92;100488.22;5011264;28;20108;-77
2021/07/14 04:41:14;;;;;;;22.27;17.50;;;;;;;20.97;75.71;100496.91;4994936;28;20026;-77
2021/07/14 04:43:41;;;;;;;22.63;18.17;;;;;;;20.99;75.62;100501.28;4994897;28;20364;-78
2021/07/14 04:46:07;;;;;;;25.98;18.35;;;;;;;21.00;75.90;100505.66;4978559;28;20026;-77
2021/07/14 04:48:32;;;;;;;26.30;18.90;;;;;;;21.00;75.82;100494.31;4996018;28;20029;-77
2021/07/14 04:50:58;;;;;;;28.20;18.08;;;;;;;20.99;76.61;100514.38;4994873;28;20053;-78
2021/07/14 04:53:23;;;;;;;25.15;18.75;;;;;;;20.99;76.58;100503.91;4994730;28;20030;-78
2021/07/14 04:55:49;;;;;;;25.80;18.60;;;;;;;21.02;76.21;100503.94;4995930;28;20033;-78
2021/07/14 04:58:14;;;;;;;23.20;17.33;;;;;;;21.07;76.72;100500.44;4995987;28;20038;-78
2021/07/14 05:00:40;;;;;;;23.73;17.20;;;;;;;21.11;76.44;100503.06;4993444;28;20033;-78
2021/07/14 05:03:05;;;;;;;25.30;17.58;;;;;;;21.12;77.16;100498.72;4995714;28;20037;-78
2021/07/14 05:05:31;;;;;;;24.02;18.30;;;;;;;21.17;77.25;100497.00;4994693;28;20030;-78
2021/07/14 05:07:56;;;;;;;26.35;18.60;;;;;;;21.20;77.79;100499.63;4995871;28;20076;-77
2021/07/14 05:10:31;;;;;;;22.08;17.30;;;;;;;21.21;77.81;100493.50;4995614;28;20026;-78
2021/07/14 05:12:57;;;;;;;26.42;18.95;;;;;;;21.22;77.94;100492.63;4994474;28;20445;-78
2021/07/14 05:15:23;;;;;;;28.85;18.50;;;;;;;21.24;77.24;100504.00;4994606;28;20033;-78
2021/07/14 05:17:49;;;;;;;28.10;19.75;;;;;;;21.23;76.90;100501.38;4995612;28;20037;-78
2021/07/14 05:20:15;;;;;;;28.48;20.40;;;;;;;21.15;77.10;100498.72;4994286;28;20022;-78
2021/07/14 05:22:40;;;;;;;24.38;19.38;;;;;;;21.12;77.53;100496.09;4994530;28;20026;-78
2021/07/14 05:25:07;;;;;;;27.77;19.23;;;;;;;21.16;78.08;100496.09;5012059;28;20054;-78
2021/07/14 05:27:33;;;;;;;31.55;20.65;;;;;;;21.18;78.18;100503.97;4997347;28;20036;-78
2021/07/14 05:29:59;;;;;;;24.35;18.63;;;;;;;21.20;78.12;100502.25;5014872;28;20036;-78
2021/07/14 05:32:24;;;;;;;26.23;19.45;;;;;;;21.26;77.76;100510.13;4997269;28;20025;-78
2021/07/14 05:34:50;;;;;;;29.00;20.90;;;;;;;21.21;77.55;100509.22;5014733;28;20026;-78
2021/07/14 05:37:16;;;;;;;26.92;20.33;;;;;;;21.26;78.29;100512.72;4996825;28;20384;-78
2021/07/14 05:39:41;;;;;;;26.15;19.98;;;;;;;21.23;78.39;100507.47;4997118;28;20053;-77
2021/07/14 05:42:07;;;;;;;25.75;18.95;;;;;;;21.27;78.31;100503.16;4997271;28;20026;-77
2021/07/14 05:44:33;;;;;;;28.50;20.20;;;;;;;21.31;78.65;100510.16;5014513;28;20491;-77
2021/07/14 05:46:59;;;;;;;28.80;19.38;;;;;;;21.29;78.69;100504.88;4980687;28;20067;-77
2021/07/14 05:49:24;;;;;;;30.10;20.08;;;;;;;21.33;79.19;100505.78;5013193;28;20109;-77
2021/07/14 05:51:50;;;;;;;26.95;19.83;;;;;;;21.35;79.44;100497.91;5014425;28;20029;-77
2021/07/14 05:54:16;;;;;;;28.48;20.42;;;;;;;21.37;79.62;100493.56;4996667;28;20080;-77
2021/07/14 05:56:42;;;;;;;29.73;20.80;;;;;;;21.40;79.58;100493.56;4996773;28;20038;-77
2021/07/14 05:59:08;;;;;;;32.70;20.88;;;;;;;21.42;79.30;100491.81;4980529;28;20028;-77
2021/07/14 06:01:34;;;;;;;30.52;21.83;;;;;;;21.44;79.33;100495.31;5013099;28;20033;-77
2021/07/14 06:04:00;;;;;;;33.03;21.13;;;;;;;21.46;79.40;100488.31;4996178;28;20042;-77
2021/07/14 06:06:26;;;;;;;31.20;21.42;;;;;;;21.48;79.01;100486.59;5013083;28;20029;-77
2021/07/14 06:08:51;;;;;;;29.88;21.95;;;;;;;21.49;79.37;100477.84;5013889;28;20106;-77
2021/07/14 06:11:17;;;;;;;30.88;20.30;;;;;;;21.50;79.40;100478.75;4996424;28;20038;-77
2021/07/14 06:13:42;;;;;;;32.83;21.77;;;;;;;21.50;79.20;100479.59;4996488;28;20064;-77
2021/07/14 06:16:08;;;;;;;31.27;22.27;;;;;;;21.54;79.72;100481.34;5014152;28;20041;-77
2021/07/14 06:18:34;;;;;;;33.03;21.98;;;;;;;21.56;80.44;100482.22;4996600;28;20479;-78
2021/07/14 06:21:00;;;;;;;33.50;21.63;;;;;;;21.56;79.74;100469.13;4996344;28;20098;-77
2021/07/14 06:23:25;;;;;;;28.35;20.45;;;;;;;21.51;79.41;100465.63;4996413;28;20050;-77
2021/07/14 06:25:51;;;;;;;28.98;20.58;;;;;;;21.53;79.43;100479.59;4996279;28;20373;-77
2021/07/14 06:28:16;;;;;;;30.58;22.08;;;;;;;21.51;79.70;100467.38;4996439;28;20060;-77
2021/07/14 06:30:43;;;;;;;28.83;22.38;;;;;;;21.51;79.72;100464.78;4996043;28;20034;-77
2021/07/14 06:33:09;;;;;;;32.15;22.25;;;;;;;21.51;79.44;100467.38;4996119;28;20018;-77
2021/07/14 06:35:35;;;;;;;33.17;23.40;;;;;;;21.49;79.83;100467.38;5012504;28;20092;-77
2021/07/14 06:38:01;;;;;;;32.42;21.25;;;;;;;21.46;79.52;100488.31;4996167;28;20029;-77
2021/07/14 06:40:26;;;;;;;41.58;25.33;;;;;;;21.49;80.43;100480.47;4996168;28;20096;-76
2021/07/14 06:42:52;;;;;;;34.80;24.33;;;;;;;21.44;81.23;100451.66;4995972;28;20177;-77
2021/07/14 06:45:20;;;;;;;38.13;23.55;;;;;;;21.43;80.86;100447.28;5013743;28;20037;-77
2021/07/14 06:47:46;;;;;;;36.60;24.35;;;;;;;21.33;80.88;100440.28;5013428;28;20068;-77
2021/07/14 06:50:13;;;;;;;31.80;23.83;;;;;;;21.31;81.40;100436.81;4995974;28;20029;-77
2021/07/14 06:52:39;;;;;;;31.92;23.45;;;;;;;21.33;81.85;100434.16;5011844;28;20026;-77
2021/07/14 06:55:06;;;;;;;31.42;24.00;;;;;;;21.34;81.67;100435.91;5011997;28;20053;-77
2021/07/14 06:57:32;;;;;;;31.60;24.15;;;;;;;21.37;82.06;100425.44;4994585;28;20040;-77
2021/07/14 06:59:57;;;;;;;34.75;25.80;;;;;;;21.43;81.65;100425.44;4995542;28;20021;-77
2021/07/14 07:02:23;;;;;;;35.85;25.67;;;;;;;21.47;82.10;100423.72;4995727;28;20127;-77
2021/07/14 07:04:48;;;;;;;33.67;25.27;;;;;;;21.51;82.04;100414.97;5012026;28;20022;-77
2021/07/14 07:07:14;;;;;;;34.40;24.27;;;;;;;21.51;82.53;100413.22;4995674;28;20082;-77
2021/07/14 07:09:40;;;;;;;34.05;24.98;;;;;;;21.51;81.87;100418.47;4995514;28;20029;-77
2021/07/14 07:12:05;;;;;;;33.47;23.20;;;;;;;21.52;81.63;100425.44;4995520;28;20025;-77
2021/07/14 07:14:31;;;;;;;35.05;24.33;;;;;;;21.56;81.86;100411.47;5011704;28;20088;-76
2021/07/14 07:16:56;;;;;;;32.35;22.05;;;;;;;21.63;81.60;100416.72;4995581;28;20021;-77
2021/07/14 07:19:22;;;;;;;34.50;24.02;;;;;;;21.70;81.98;100408.00;5013139;28;20419;-77
2021/07/14 07:21:49;;;;;;;28.55;22.23;;;;;;;21.81;82.30;100414.16;4979230;28;20109;-77
2021/07/14 07:24:15;;;;;;;34.88;23.40;;;;;;;21.95;82.06;100416.72;4974859;28;20065;-77
2021/07/14 07:26:40;;;;;;;32.83;22.42;;;;;;;22.08;82.18;100420.22;4991698;28;20471;-77
2021/07/14 07:29:06;;;;;;;30.33;21.67;;;;;;;22.14;81.47;100420.22;4992527;28;20497;-77
2021/07/14 07:31:32;;;;;;;29.17;22.30;;;;;;;22.18;81.13;100414.06;4993229;28;20053;-77
2021/07/14 07:33:58;;;;;;;36.58;22.02;;;;;;;22.17;81.26;100420.19;4992082;28;20037;-76
2021/07/14 07:36:25;;;;;;;27.92;21.00;;;;;;;22.22;80.92;100420.16;4993243;28;20023;-78
2021/07/14 07:38:50;;;;;;;29.08;20.85;;;;;;;22.24;80.99;100420.19;4993243;28;20019;-78
2021/07/14 07:41:23;;;;;;;27.77;19.73;;;;;;;22.25;80.76;100422.78;4975701;28;20368;-78
2021/07/14 07:43:48;;;;;;;26.73;20.35;;;;;;;22.25;80.30;100425.41;4992111;28;20113;-77
2021/07/14 07:46:14;;;;;;;25.92;19.70;;;;;;;22.30;80.80;100417.53;4993195;28;20120;-77
2021/07/14 07:48:40;;;;;;;27.13;20.00;;;;;;;22.30;80.36;100421.06;4991958;28;20026;-77
2021/07/14 07:51:07;;;;;;;29.92;18.13;;;;;;;22.31;80.23;100421.91;4992859;28;20116;-76
2021/07/14 07:53:33;;;;;;;25.70;18.80;;;;;;;22.35;80.43;100423.66;5008250;28;20034;-78
2021/07/14 07:55:59;;;;;;;29.17;18.95;;;;;;;22.39;80.27;100408.78;4992974;28;20026;-77
2021/07/14 07:58:25;;;;;;;24.58;18.58;;;;;;;22.43;80.71;100400.88;4991489;28;20030;-80
2021/07/14 08:00:51;;;;;;;24.27;18.65;;;;;;;22.46;80.83;100400.91;4992545;28;20021;-73
2021/07/14 08:03:17;;;;;;;30.23;17.15;;;;;;;22.53;80.80;100395.63;4992382;28;20031;-73
2021/07/14 08:05:42;;;;;;;25.63;17.83;;;;;;;22.65;81.01;100387.69;4991240;28;20472;-73
2021/07/14 08:08:08;;;;;;;25.58;17.17;;;;;;;22.78;81.60;100380.63;4991288;28;20105;-74
2021/07/14 08:10:34;;;;;;;23.55;18.27;;;;;;;22.95;83.15;100377.94;5007509;28;20030;-73
2021/07/14 08:13:00;;;;;;;19.85;15.73;;;;;;;23.10;80.75;100382.19;4990845;28;20030;-73
2021/07/14 08:15:26;;;;;;;21.15;16.25;;;;;;;23.26;80.37;100372.50;4992425;28;20022;-73
2021/07/14 08:17:51;;;;;;;21.17;15.45;;;;;;;23.32;79.43;100382.94;4991829;28;20474;-74
2021/07/14 08:20:17;;;;;;;20.48;15.65;;;;;;;23.42;80.29;100380.25;4990577;28;20022;-73
2021/07/14 08:22:43;;;;;;;19.63;14.23;;;;;;;23.46;79.40;100369.72;4988605;28;20023;-73
2021/07/14 08:25:10;;;;;;;16.20;14.15;;;;;;;23.53;79.03;100378.41;4989012;28;20066;-74
2021/07/14 08:27:37;;;;;;;17.08;13.10;;;;;;;23.61;79.41;100383.59;4967890;28;20507;-74
2021/07/14 08:30:07;;;;;;;20.10;13.80;;;;;;;23.67;78.39;100382.66;4991555;28;20030;-74
2021/07/14 08:32:32;;;;;;;19.10;12.88;;;;;;;23.78;77.26;100396.56;4992371;28;20077;-74
2021/07/14 08:34:58;;;;;;;17.60;12.95;;;;;;;23.85;76.10;100398.25;4993701;28;20034;-74
2021/07/14 08:37:24;;;;;;;14.10;11.57;;;;;;;23.89;74.77;100404.38;4994419;28;20361;-74
2021/07/14 08:39:50;;;;;;;24.13;12.65;;;;;;;23.82;74.99;100403.53;4994405;28;20096;-74
2021/07/14 08:42:17;;;;;;;15.55;12.30;;;;;;;23.79;74.57;100403.56;4994626;28;20472;-74
2021/07/14 08:44:43;;;;;;;18.17;12.40;;;;;;;23.86;74.60;100405.28;4994159;28;20368;-74
2021/07/14 08:47:08;;;;;;;15.23;11.57;;;;;;;23.95;75.24;100409.56;5010465;28;20030;-74
2021/07/14 08:49:38;;;;;;;16.98;13.00;;;;;;;23.99;74.91;100394.66;5002384;28;20026;-74
2021/07/14 08:52:04;;;;;;;18.40;11.60;;;;;;;24.09;75.49;100391.06;5010703;28;20109;-73
2021/07/14 08:54:29;;;;;;;14.27;11.80;;;;;;;24.29;74.77;100397.84;5010358;28;20085;-75
2021/07/14 08:56:55;;;;;;;15.10;11.45;;;;;;;24.37;76.19;100382.84;5010487;28;20030;-75
2021/07/14 08:59:21;;;;;;;12.45;10.00;;;;;;;24.60;73.85;100371.16;4988799;28;20022;-74
2021/07/14 09:01:48;;;;;;;18.17;11.85;;;;;;;24.63;72.69;100377.25;4995290;28;20031;-75
2021/07/14 09:04:15;;;;;;;17.48;11.32;;;;;;;24.64;72.40;100362.31;4994093;28;20076;-74
2021/07/14 09:06:41;;;;;;;16.13;10.73;;;;;;;24.64;72.09;100373.72;4993914;28;20022;-74
2021/07/14 09:09:06;;;;;;;17.52;11.63;;;;;;;24.66;73.23;100371.06;4988124;28;20057;-74
2021/07/14 09:11:57;;;;;;;14.65;11.15;;;;;;;24.57;72.30;100372.06;4989827;28;20022;-76
2021/07/14 09:14:32;;;;;;;14.20;10.90;;;;;;;24.53;71.49;100375.63;5006536;28;20353;-76
2021/07/14 09:17:01;;;;;;;14.15;10.60;;;;;;;24.47;72.44;100376.56;4993524;28;20045;-76
2021/07/14 09:19:29;;;;;;;17.63;10.20;;;;;;;24.40;73.11;100390.69;4990066;28;20018;-77
2021/07/14 09:21:57;;;;;;;19.77;11.70;;;;;;;24.40;73.08;100388.06;4993612;28;20087;-76
2021/07/14 09:24:26;;;;;;;12.68;10.30;;;;;;;24.42;72.58;100394.19;4987183;28;20054;-77
2021/07/14 09:26:56;;;;;;;11.85;10.50;;;;;;;24.36;73.44;100399.53;4980976;28;20030;-75
2021/07/14 09:29:24;;;;;;;14.77;10.98;;;;;;;24.34;72.50;100403.94;4996340;28;20054;-75
2021/07/14 09:31:50;;;;;;;15.77;11.70;;;;;;;24.38;73.16;100413.53;4995785;28;20026;-76
2021/07/14 09:34:28;;;;;;;14.93;11.38;;;;;;;24.39;72.74;100415.28;5011645;28;20463;-75
2021/07/14 09:37:01;;;;;;;12.40;11.10;;;;;;;24.42;73.28;100409.97;4995930;28;20030;-75
2021/07/14 09:39:39;;;;;;;15.25;11.38;;;;;;;24.63;70.70;100408.84;4982187;28;20117;-76
2021/07/14 09:42:08;;;;;;;13.15;11.20;;;;;;;24.64;69.81;100407.06;5005085;28;20049;-74
2021/07/14 09:44:35;;;;;;;13.23;11.45;;;;;;;24.69;70.42;100407.88;5005337;28;20369;-75
2021/07/14 09:47:11;;;;;;;15.30;10.30;;;;;;;25.01;69.24;100409.25;4979582;28;20065;-75
2021/07/14 09:49:37;;;;;;;18.73;10.05;;;;;;;25.28;69.37;100401.81;4993673;28;20030;-77
2021/07/14 09:52:16;;;;;;;14.00;10.82;;;;;;;25.57;67.15;100400.50;5001500;28;20026;-76
2021/07/14 09:54:43;;;;;;;;;;;;;;;25.69;66.96;100401.19;5001029;28;20030;-76
2021/07/14 09:57:13;;;;;;;14.40;10.35;;;;;;;25.78;65.70;100406.28;4992996;28;20325;-77
2021/07/14 09:59:39;;;;;;;15.73;11.00;;;;;;;25.90;64.99;100400.78;4997931;28;20049;-77
2021/07/14 10:02:05;;;;;;;12.82;10.38;;;;;;;26.03;64.44;100390.03;5004384;28;20484;-75
2021/07/14 10:04:36;;;;;;;12.73;10.38;;;;;;;26.32;65.89;100392.13;5004887;28;20073;-76
2021/07/14 10:07:26;;;;;;;14.57;9.18;;;;;;;26.61;65.51;100392.41;4996861;28;20026;-77
2021/07/14 10:09:51;;;;;;;15.00;10.23;;;;;;;26.78;62.32;100395.56;5013899;28;20100;-76
2021/07/14 10:12:33;;;;;;;12.30;9.18;;;;;;;26.97;62.22;100400.47;5002857;28;20113;-76
2021/07/14 10:15:13;;;;;;;12.68;10.05;;;;;;;27.20;60.05;100407.00;4993979;28;20496;-75
2021/07/14 10:17:44;;;;;;;12.68;9.95;;;;;;;27.38;58.85;100408.31;4991651;28;20026;-75
2021/07/14 10:20:43;;;;;;;12.95;8.88;;;;;;;27.52;57.44;100408.88;5033271;28;20022;-74
2021/07/14 10:23:13;;;;;;;14.05;8.20;;;;;;;27.63;58.51;100411.25;4996653;28;20053;-76
2021/07/14 10:25:41;;;;;;;10.90;9.70;;;;;;;27.62;55.91;100404.22;5009556;28;20048;-76
2021/07/14 10:28:09;;;;;;;10.75;8.95;;;;;;;27.54;57.09;100416.78;5012153;28;20021;-76
2021/07/14 10:30:37;;;;;;;15.60;9.68;;;;;;;27.74;57.37;100412.75;5023218;28;20111;-75
2021/07/14 10:33:03;;;;;;;14.35;9.05;;;;;;;27.79;57.21;100408.22;4998190;28;20025;-73
2021/07/14 10:35:31;;;;;;;16.10;9.15;;;;;;;27.95;57.77;100404.25;4981854;28;20032;-75
2021/07/14 10:37:59;;;;;;;10.40;8.82;;;;;;;28.09;58.80;100403.88;5006729;28;20020;-75
2021/07/14 10:40:26;;;;;;;16.87;9.40;;;;;;;28.21;57.24;100413.31;5021922;28;20048;-75
2021/07/14 10:42:52;;;;;;;11.85;8.77;;;;;;;28.21;57.14;100418.59;4999336;28;20026;-75
2021/07/14 10:45:18;;;;;;;13.07;9.18;;;;;;;28.23;58.47;100422.06;5026819;28;20028;-76
2021/07/14 10:47:49;;;;;;;11.20;9.05;;;;;;;27.68;57.56;100419.94;4995856;28;20076;-75
2021/07/14 10:50:19;;;;;;;13.18;9.63;;;;;;;27.48;58.18;100416.91;5020202;28;20475;-75
2021/07/14 10:52:46;;;;;;;11.55;9.73;;;;;;;27.26;59.02;100417.44;5000147;28;20040;-75
2021/07/14 10:55:21;;;;;;;13.63;10.00;;;;;;;27.33;59.86;100419.03;5026689;28;20024;-75
2021/07/14 10:57:49;;;;;;;14.27;9.18;;;;;;;27.11;59.92;100419.53;5011868;28;20017;-75
2021/07/14 11:00:15;;;;;;;12.40;9.98;;;;;;;27.30;61.17;100408.53;5011344;28;20097;-76
2021/07/14 11:02:43;;;;;;;11.52;9.18;;;;;;;27.56;60.91;100402.59;5013097;28;20443;-75
2021/07/14 11:05:10;;;;;;;12.55;9.40;;;;;;;27.70;59.38;100412.84;4990817;28;20022;-75
2021/07/14 11:07:42;;;;;;;14.27;10.55;;;;;;;27.77;59.44;100408.25;4996225;28;20025;-78
2021/07/14 11:10:25;;;;;;;15.02;9.85;;;;;;;27.85;58.84;100410.69;4989740;28;20192;-76
2021/07/14 11:12:52;;;;;;;14.82;9.40;;;;;;;27.69;60.90;100416.38;5011382;28;20108;-76
2021/07/14 11:15:33;;;;;;;17.70;10.05;;;;;;;27.67;60.74;100407.63;4995812;28;20033;-76
2021/07/14 11:18:00;;;;;;;12.30;9.55;;;;;;;27.64;60.07;100413.00;4990678;28;20014;-74
2021/07/14 11:20:51;;;;;;;13.68;9.63;;;;;;;27.81;61.68;100409.03;5012146;28;20093;-75
2021/07/14 11:23:22;;;;;;;11.02;9.45;;;;;;;27.72;59.57;100404.00;5018317;28;20372;-74